sensor_id;sensor_type;location;lat;lon;timestamp;pressure;altitude;pressure_sealevel;temperature;humidity
66206;BME280;53009;52.490;4.976;2023-02-13T00:00:07;103900;;;7.5;100
66206;BME280;53009;52.490;4.976;2023-02-13T00:00:59;103900;;;7.5;100
66206;BME280;53009;52.490;4.976;2023-02-13T00:03:02;103900;;;7.5;100
66206;BME280;53009;52.490;4.976;2023-02-13T00:07:20;103900;;;7.5;100
66206;BME280;53009;52.490;4.976;2023-02-13T00:09:54;103900;;;7.5;100
66206;BME280;53009;52.490;4.976;2023-02-13T00:10:52;103900;;;7.5;100
66206;BME280;53009;52.490;4.976;2023-02-13T00:15:54;103900;;;7.5;100
66206;BME280;53009;52.490;4.976;2023-02-13T00:17:03;103900;;;7.5;100
66206;BME280;53009;52.490;4.976;2023-02-13T00:21:28;103900;;;7.5;100
66206;BME280;53009;52.490;4.976;2023-02-13T00:25:38;103900;;;7.5;100
66206;BME280;53009;52.490;4.976;2023-02-13T00:27:00;103900;;;7.5;100
66206;BME280;53009;52.490;4.976;2023-02-13T00:29:20;103900;;;7.5;100
66206;BME280;53009;52.490;4.976;2023-02-13T00:30:11;103900;;;7.5;100
66206;BME280;53009;52.490;4.976;2023-02-13T00:34:21;103900;;;7.5;100
66206;BME280;53009;52.490;4.976;2023-02-13T00:35:35;103900;;;7.5;100
66206;BME280;53009;52.490;4.976;2023-02-13T00:36:49;103900;;;7.5;100
66206;BME280;53009;52.490;4.976;2023-02-13T00:39:09;103900;;;7.5;100
66206;BME280;53009;52.490;4.976;2023-02-13T00:41:19;103900;;;7.5;100
66206;BME280;53009;52.490;4.976;2023-02-13T00:45:45;103900;;;7.5;100
66206;BME280;53009;52.490;4.976;2023-02-13T00:46:51;103900;;;7.5;100
66206;BME280;53009;52.490;4.976;2023-02-13T00:48:13;103900;;;7.5;100
66206;BME280;53009;52.490;4.976;2023-02-13T00:53:13;103900;;;7.5;100
66206;BME280;53009;52.490;4.976;2023-02-13T00:58:13;103900;;;7.5;100
66206;BME280;53009;52.490;4.976;2023-02-13T01:03:13;103900;;;7.5;100
66206;BME280;53009;52.490;4.976;2023-02-13T01:08:14;103900;;;7.5;100
66206;BME280;53009;52.490;4.976;2023-02-13T01:13:13;103900;;;7.5;100
66206;BME280;53009;52.490;4.976;2023-02-13T01:18:13;103900;;;7.4;100
66206;BME280;53009;52.490;4.976;2023-02-13T01:23:13;103900;;;7.5;100
66206;BME280;53009;52.490;4.976;2023-02-13T01:28:13;103900;;;7.5;100
66206;BME280;53009;52.490;4.976;2023-02-13T01:33:13;103900;;;7.5;100
66206;BME280;53009;52.490;4.976;2023-02-13T01:38:13;103900;;;7.5;100
66206;BME280;53009;52.490;4.976;2023-02-13T01:43:13;103900;;;7.5;100
66206;BME280;53009;52.490;4.976;2023-02-13T01:48:14;103900;;;7.5;100
66206;BME280;53009;52.490;4.976;2023-02-13T01:53:15;103900;;;7.4;100
66206;BME280;53009;52.490;4.976;2023-02-13T01:58:13;103900;;;7.4;100
66206;BME280;53009;52.490;4.976;2023-02-13T02:03:14;103900;;;7.4;100
66206;BME280;53009;52.490;4.976;2023-02-13T02:08:13;103900;;;7.4;100
66206;BME280;53009;52.490;4.976;2023-02-13T02:13:14;103900;;;7.4;100
66206;BME280;53009;52.490;4.976;2023-02-13T02:18:14;103900;;;7.4;100
66206;BME280;53009;52.490;4.976;2023-02-13T02:23:16;103900;;;7.4;100
66206;BME280;53009;52.490;4.976;2023-02-13T02:28:21;103900;;;7.4;100
66206;BME280;53009;52.490;4.976;2023-02-13T02:33:17;103900;;;7.4;100
66206;BME280;53009;52.490;4.976;2023-02-13T02:38:16;103900;;;7.3;100
66206;BME280;53009;52.490;4.976;2023-02-13T02:43:17;103900;;;7.3;100
66206;BME280;53009;52.490;4.976;2023-02-13T02:48:16;103900;;;7.3;100
66206;BME280;53009;52.490;4.976;2023-02-13T02:53:16;103900;;;7.3;100
66206;BME280;53009;52.490;4.976;2023-02-13T02:58:15;103900;;;7.3;100
66206;BME280;53009;52.490;4.976;2023-02-13T03:03:14;103900;;;7.3;100
66206;BME280;53009;52.490;4.976;2023-02-13T03:08:13;103900;;;7.2;100
66206;BME280;53009;52.490;4.976;2023-02-13T03:13:14;103900;;;7.2;100
66206;BME280;53009;52.490;4.976;2023-02-13T03:18:13;103900;;;7.2;100
66206;BME280;53009;52.490;4.976;2023-02-13T03:23:14;103900;;;7.2;100
66206;BME280;53009;52.490;4.976;2023-02-13T03:28:15;103900;;;7.2;100
66206;BME280;53009;52.490;4.976;2023-02-13T03:33:17;103900;;;7.1;100
66206;BME280;53009;52.490;4.976;2023-02-13T03:38:15;103900;;;7.1;100
66206;BME280;53009;52.490;4.976;2023-02-13T03:43:14;103900;;;7.1;100
66206;BME280;53009;52.490;4.976;2023-02-13T03:48:13;103900;;;7.1;100
66206;BME280;53009;52.490;4.976;2023-02-13T03:54:42;103900;;;7.1;100
66206;BME280;53009;52.490;4.976;2023-02-13T03:58:14;103900;;;7.1;100
66206;BME280;53009;52.490;4.976;2023-02-13T04:03:14;103900;;;7.1;100
66206;BME280;53009;52.490;4.976;2023-02-13T04:08:13;103800;;;7.1;100
66206;BME280;53009;52.490;4.976;2023-02-13T04:13:13;103800;;;7.1;100
66206;BME280;53009;52.490;4.976;2023-02-13T04:18:14;103800;;;7.1;100
66206;BME280;53009;52.490;4.976;2023-02-13T04:23:13;103800;;;7.1;100
66206;BME280;53009;52.490;4.976;2023-02-13T04:28:13;103800;;;7.1;100
66206;BME280;53009;52.490;4.976;2023-02-13T04:33:13;103800;;;7.1;100
66206;BME280;53009;52.490;4.976;2023-02-13T04:38:13;103800;;;7.1;100
66206;BME280;53009;52.490;4.976;2023-02-13T04:43:13;103800;;;7.1;100
66206;BME280;53009;52.490;4.976;2023-02-13T04:48:13;103800;;;7.1;100
66206;BME280;53009;52.490;4.976;2023-02-13T04:53:13;103800;;;7.1;100
66206;BME280;53009;52.490;4.976;2023-02-13T04:58:13;103800;;;7.1;100
66206;BME280;53009;52.490;4.976;2023-02-13T05:03:13;103800;;;7.1;100
66206;BME280;53009;52.490;4.976;2023-02-13T05:08:13;103800;;;7.1;100
66206;BME280;53009;52.490;4.976;2023-02-13T05:13:13;103800;;;7.1;100
66206;BME280;53009;52.490;4.976;2023-02-13T05:18:13;103800;;;7.1;100
66206;BME280;53009;52.490;4.976;2023-02-13T05:23:13;103800;;;7.1;100
66206;BME280;53009;52.490;4.976;2023-02-13T05:28:13;103800;;;7.1;100
66206;BME280;53009;52.490;4.976;2023-02-13T05:33:13;103800;;;7.1;100
66206;BME280;53009;52.490;4.976;2023-02-13T05:38:13;103800;;;7.1;100
66206;BME280;53009;52.490;4.976;2023-02-13T05:43:13;103800;;;7.1;100
66206;BME280;53009;52.490;4.976;2023-02-13T05:48:13;103800;;;7.1;100
66206;BME280;53009;52.490;4.976;2023-02-13T05:53:13;103800;;;7.1;100
66206;BME280;53009;52.490;4.976;2023-02-13T05:58:13;103800;;;7.1;100
66206;BME280;53009;52.490;4.976;2023-02-13T06:03:13;103800;;;7.1;100
66206;BME280;53009;52.490;4.976;2023-02-13T06:08:13;103800;;;7.1;100
66206;BME280;53009;52.490;4.976;2023-02-13T06:13:14;103800;;;7.1;100
66206;BME280;53009;52.490;4.976;2023-02-13T06:18:13;103800;;;7.1;100
66206;BME280;53009;52.490;4.976;2023-02-13T06:23:13;103800;;;7.1;100
66206;BME280;53009;52.490;4.976;2023-02-13T06:28:13;103800;;;7.1;100
66206;BME280;53009;52.490;4.976;2023-02-13T06:33:13;103800;;;7.1;100
66206;BME280;53009;52.490;4.976;2023-02-13T06:38:13;103800;;;7.2;100
66206;BME280;53009;52.490;4.976;2023-02-13T06:43:13;103800;;;7.2;100
66206;BME280;53009;52.490;4.976;2023-02-13T06:48:13;103800;;;7.2;100
66206;BME280;53009;52.490;4.976;2023-02-13T06:53:13;103800;;;7.1;100
66206;BME280;53009;52.490;4.976;2023-02-13T06:58:13;103800;;;7.2;100
66206;BME280;53009;52.490;4.976;2023-02-13T07:03:13;103800;;;7.2;100
66206;BME280;53009;52.490;4.976;2023-02-13T07:03:51;103800;;;7.2;100
66206;BME280;53009;52.490;4.976;2023-02-13T07:05:53;103800;;;7.2;100
66206;BME280;53009;52.490;4.976;2023-02-13T07:07:56;103800;;;7.1;100
66206;BME280;53009;52.490;4.976;2023-02-13T07:09:01;103800;;;7.1;100
66206;BME280;53009;52.490;4.976;2023-02-13T07:11:21;103800;;;7.1;100
66206;BME280;53009;52.490;4.976;2023-02-13T07:11:54;103800;;;7.1;100
66206;BME280;53009;52.490;4.976;2023-02-13T07:16:54;103800;;;7.1;100
66206;BME280;53009;52.490;4.976;2023-02-13T07:17:41;103800;;;7.1;100
66206;BME280;53009;52.490;4.976;2023-02-13T07:20:38;103800;;;7.1;100
66206;BME280;53009;52.490;4.976;2023-02-13T07:23:52;103800;;;7.1;100
66206;BME280;53009;52.490;4.976;2023-02-13T07:25:41;103800;;;7.1;100
66206;BME280;53009;52.490;4.976;2023-02-13T07:26:41;103800;;;7.1;100
66206;BME280;53009;52.490;4.976;2023-02-13T07:31:11;103800;;;7.1;100
66206;BME280;53009;52.490;4.976;2023-02-13T07:32:41;103800;;;7.1;100
66206;BME280;53009;52.490;4.976;2023-02-13T07:34:16;103900;;;7.2;100
66206;BME280;53009;52.490;4.976;2023-02-13T07:35:22;103900;;;7.2;100
66206;BME280;53009;52.490;4.976;2023-02-13T07:38:06;103900;;;7.2;100
66206;BME280;53009;52.490;4.976;2023-02-13T07:41:20;103900;;;7.2;100
66206;BME280;53009;52.490;4.976;2023-02-13T07:42:19;103900;;;7.2;100
66206;BME280;53009;52.490;4.976;2023-02-13T07:44:29;103900;;;7.2;100
66206;BME280;53009;52.490;4.976;2023-02-13T07:45:10;103900;;;7.2;100
66206;BME280;53009;52.490;4.976;2023-02-13T07:47:21;103900;;;7.2;100
66206;BME280;53009;52.490;4.976;2023-02-13T07:48:36;103900;;;7.2;100
66206;BME280;53009;52.490;4.976;2023-02-13T07:52:05;103900;;;7.3;100
66206;BME280;53009;52.490;4.976;2023-02-13T07:55:28;103900;;;7.3;100
66206;BME280;53009;52.490;4.976;2023-02-13T08:00:04;103900;;;7.3;100
66206;BME280;53009;52.490;4.976;2023-02-13T08:01:17;103900;;;7.3;100
66206;BME280;53009;52.490;4.976;2023-02-13T08:03:36;103900;;;7.3;100
66206;BME280;53009;52.490;4.976;2023-02-13T08:04:50;103900;;;7.3;100
66206;BME280;53009;52.490;4.976;2023-02-13T08:06:12;103900;;;7.3;100
66206;BME280;53009;52.490;4.976;2023-02-13T08:11:18;103900;;;7.4;100
66206;BME280;53009;52.490;4.976;2023-02-13T08:12:46;103900;;;7.4;100
66206;BME280;53009;52.490;4.976;2023-02-13T08:13:52;103900;;;7.4;100
66206;BME280;53009;52.490;4.976;2023-02-13T08:15:08;103900;;;7.4;100
66206;BME280;53009;52.490;4.976;2023-02-13T08:16:28;103900;;;7.4;100
66206;BME280;53009;52.490;4.976;2023-02-13T08:17:42;103900;;;7.4;100
66206;BME280;53009;52.490;4.976;2023-02-13T08:19:06;103900;;;7.4;100
66206;BME280;53009;52.490;4.976;2023-02-13T08:22:36;103900;;;7.4;100
66206;BME280;53009;52.490;4.976;2023-02-13T08:25:02;103900;;;7.5;100
66206;BME280;53009;52.490;4.976;2023-02-13T08:29:12;103900;;;7.5;100
66206;BME280;53009;52.490;4.976;2023-02-13T08:31:30;103900;;;7.5;100
66206;BME280;53009;52.490;4.976;2023-02-13T08:32:27;103900;;;7.5;100
66206;BME280;53009;52.490;4.976;2023-02-13T08:35:42;103900;;;7.6;100
66206;BME280;53009;52.490;4.976;2023-02-13T08:36:55;103900;;;7.6;100
66206;BME280;53009;52.490;4.976;2023-02-13T08:38:03;103900;;;7.6;100
66206;BME280;53009;52.490;4.976;2023-02-13T08:39:16;103900;;;7.6;100
66206;BME280;53009;52.490;4.976;2023-02-13T08:40:22;103900;;;7.6;100
66206;BME280;53009;52.490;4.976;2023-02-13T08:43:27;103900;;;7.6;100
66206;BME280;53009;52.490;4.976;2023-02-13T08:44:33;103900;;;7.7;100
66206;BME280;53009;52.490;4.976;2023-02-13T08:46:52;103900;;;7.6;100
66206;BME280;53009;52.490;4.976;2023-02-13T08:48:07;103900;;;7.6;100
66206;BME280;53009;52.490;4.976;2023-02-13T08:53:07;103900;;;7.7;100
66206;BME280;53009;52.490;4.976;2023-02-13T08:54:32;103900;;;7.7;100
66206;BME280;53009;52.490;4.976;2023-02-13T08:56:43;103900;;;7.7;100
66206;BME280;53009;52.490;4.976;2023-02-13T09:00:05;103900;;;7.8;100
66206;BME280;53009;52.490;4.976;2023-02-13T09:05:05;103900;;;7.8;100
66206;BME280;53009;52.490;4.976;2023-02-13T09:06:55;103900;;;7.8;100
66206;BME280;53009;52.490;4.976;2023-02-13T09:07:53;103900;;;7.8;100
66206;BME280;53009;52.490;4.976;2023-02-13T09:12:53;103900;;;7.9;100
66206;BME280;53009;52.490;4.976;2023-02-13T09:13:41;103900;;;7.9;100
66206;BME280;53009;52.490;4.976;2023-02-13T09:17:33;103900;;;7.9;100
66206;BME280;53009;52.490;4.976;2023-02-13T09:19:43;103900;;;7.9;100
66206;BME280;53009;52.490;4.976;2023-02-13T09:21:54;103900;;;7.9;100
66206;BME280;53009;52.490;4.976;2023-02-13T09:24:19;103900;;;8;100
66206;BME280;53009;52.490;4.976;2023-02-13T09:29:19;103900;;;8.1;100
66206;BME280;53009;52.490;4.976;2023-02-13T09:30:37;103900;;;8.1;100
66206;BME280;53009;52.490;4.976;2023-02-13T09:31:43;103900;;;8.1;100
66206;BME280;53009;52.490;4.976;2023-02-13T09:33:53;103900;;;8.1;100
66206;BME280;53009;52.490;4.976;2023-02-13T09:34:44;103900;;;8.1;100
66206;BME280;53009;52.490;4.976;2023-02-13T09:38:54;103900;;;8.1;100
66206;BME280;53009;52.490;4.976;2023-02-13T09:40:00;103900;;;8.1;100
66206;BME280;53009;52.490;4.976;2023-02-13T09:42:14;103900;;;8.2;100
66206;BME280;53009;52.490;4.976;2023-02-13T09:43:51;103900;;;8.2;100
66206;BME280;53009;52.490;4.976;2023-02-13T09:44:57;103900;;;8.2;100
66206;BME280;53009;52.490;4.976;2023-02-13T09:46:10;103900;;;8.2;100
66206;BME280;53009;52.490;4.976;2023-02-13T09:51:09;103900;;;8.3;100
66206;BME280;53009;52.490;4.976;2023-02-13T09:54:35;103900;;;8.2;100
66206;BME280;53009;52.490;4.976;2023-02-13T09:56:34;103900;;;8.3;100
66206;BME280;53009;52.490;4.976;2023-02-13T09:57:41;103900;;;8.3;100
66206;BME280;53009;52.490;4.976;2023-02-13T09:59:07;103900;;;8.3;100
66206;BME280;53009;52.490;4.976;2023-02-13T10:01:25;103900;;;8.4;100
66206;BME280;53009;52.490;4.976;2023-02-13T10:02:35;103900;;;8.4;100
66206;BME280;53009;52.490;4.976;2023-02-13T10:07:32;103900;;;8.4;100
66206;BME280;53009;52.490;4.976;2023-02-13T10:12:36;103900;;;8.5;100
66206;BME280;53009;52.490;4.976;2023-02-13T10:17:32;103900;;;8.6;100
66206;BME280;53009;52.490;4.976;2023-02-13T10:22:33;103900;;;8.7;100
66206;BME280;53009;52.490;4.976;2023-02-13T10:27:31;103900;;;8.8;100
66206;BME280;53009;52.490;4.976;2023-02-13T10:32:34;103900;;;8.9;100
66206;BME280;53009;52.490;4.976;2023-02-13T10:37:30;103900;;;9.1;100
66206;BME280;53009;52.490;4.976;2023-02-13T10:42:32;103900;;;9;100
66206;BME280;53009;52.490;4.976;2023-02-13T10:47:36;103900;;;9.3;100
66206;BME280;53009;52.490;4.976;2023-02-13T10:52:36;103900;;;9.4;100
66206;BME280;53009;52.490;4.976;2023-02-13T10:57:34;103800;;;9.6;100
66206;BME280;53009;52.490;4.976;2023-02-13T11:02:31;103800;;;9.8;100
66206;BME280;53009;52.490;4.976;2023-02-13T11:07:31;103800;;;9.7;100
66206;BME280;53009;52.490;4.976;2023-02-13T11:12:31;103800;;;9.8;100
66206;BME280;53009;52.490;4.976;2023-02-13T11:17:31;103800;;;9.8;100
66206;BME280;53009;52.490;4.976;2023-02-13T11:22:31;103800;;;9.8;100
66206;BME280;53009;52.490;4.976;2023-02-13T11:27:31;103800;;;9.9;100
66206;BME280;53009;52.490;4.976;2023-02-13T11:32:31;103800;;;9.9;100
66206;BME280;53009;52.490;4.976;2023-02-13T11:37:31;103800;;;10.1;100
66206;BME280;53009;52.490;4.976;2023-02-13T11:42:31;103800;;;10.3;100
66206;BME280;53009;52.490;4.976;2023-02-13T11:47:38;103800;;;10.4;100
66206;BME280;53009;52.490;4.976;2023-02-13T11:52:31;103800;;;10.4;100
66206;BME280;53009;52.490;4.976;2023-02-13T11:57:31;103800;;;10.4;100
66206;BME280;53009;52.490;4.976;2023-02-13T12:02:42;103800;;;10.4;100
66206;BME280;53009;52.490;4.976;2023-02-13T12:07:31;103800;;;10.6;100
66206;BME280;53009;52.490;4.976;2023-02-13T12:12:32;103800;;;10.8;100
66206;BME280;53009;52.490;4.976;2023-02-13T12:17:31;103800;;;10.8;100
66206;BME280;53009;52.490;4.976;2023-02-13T12:22:31;103800;;;10.8;100
66206;BME280;53009;52.490;4.976;2023-02-13T12:27:32;103800;;;10.8;100
66206;BME280;53009;52.490;4.976;2023-02-13T12:32:32;103800;;;10.9;100
66206;BME280;53009;52.490;4.976;2023-02-13T12:37:35;103800;;;11;100
66206;BME280;53009;52.490;4.976;2023-02-13T12:42:34;103800;;;11.2;100
66206;BME280;53009;52.490;4.976;2023-02-13T12:47:32;103800;;;11;100
66206;BME280;53009;52.490;4.976;2023-02-13T12:52:35;103800;;;11.2;100
66206;BME280;53009;52.490;4.976;2023-02-13T12:57:35;103800;;;11.4;100
66206;BME280;53009;52.490;4.976;2023-02-13T13:02:39;103800;;;11.5;100
66206;BME280;53009;52.490;4.976;2023-02-13T13:07:37;103700;;;11.4;100
66206;BME280;53009;52.490;4.976;2023-02-13T13:12:35;103700;;;11.3;100
66206;BME280;53009;52.490;4.976;2023-02-13T13:17:34;103700;;;11.4;100
66206;BME280;53009;52.490;4.976;2023-02-13T13:22:31;103700;;;11.4;100
66206;BME280;53009;52.490;4.976;2023-02-13T13:27:31;103700;;;11.4;100
66206;BME280;53009;52.490;4.976;2023-02-13T13:32:31;103700;;;11.6;100
66206;BME280;53009;52.490;4.976;2023-02-13T13:37:32;103700;;;11.6;100
66206;BME280;53009;52.490;4.976;2023-02-13T13:42:34;103700;;;11.5;100
66206;BME280;53009;52.490;4.976;2023-02-13T13:47:36;103700;;;11.6;100
66206;BME280;53009;52.490;4.976;2023-02-13T13:52:31;103700;;;11.6;100
66206;BME280;53009;52.490;4.976;2023-02-13T13:57:57;103700;;;11.6;100
66206;BME280;53009;52.490;4.976;2023-02-13T14:02:37;103700;;;11.6;100
66206;BME280;53009;52.490;4.976;2023-02-13T14:07:32;103700;;;11.7;100
66206;BME280;53009;52.490;4.976;2023-02-13T14:12:35;103700;;;11.6;100
66206;BME280;53009;52.490;4.976;2023-02-13T14:18:04;103700;;;11.6;100
66206;BME280;53009;52.490;4.976;2023-02-13T14:22:32;103700;;;11.6;100
66206;BME280;53009;52.490;4.976;2023-02-13T14:27:31;103700;;;11.6;100
66206;BME280;53009;52.490;4.976;2023-02-13T14:32:31;103700;;;11.6;100
66206;BME280;53009;52.490;4.976;2023-02-13T14:37:32;103700;;;11.5;100
66206;BME280;53009;52.490;4.976;2023-02-13T14:42:31;103700;;;11.6;100
66206;BME280;53009;52.490;4.976;2023-02-13T14:47:32;103700;;;11.6;100
66206;BME280;53009;52.490;4.976;2023-02-13T14:52:31;103700;;;11.6;100
66206;BME280;53009;52.490;4.976;2023-02-13T14:57:32;103700;;;11.6;100
66206;BME280;53009;52.490;4.976;2023-02-13T15:02:32;103600;;;11.5;100
66206;BME280;53009;52.490;4.976;2023-02-13T15:07:32;103600;;;11.5;100
66206;BME280;53009;52.490;4.976;2023-02-13T15:12:32;103600;;;11.5;100
66206;BME280;53009;52.490;4.976;2023-02-13T15:17:32;103600;;;11.4;100
66206;BME280;53009;52.490;4.976;2023-02-13T15:22:31;103600;;;11.4;100
66206;BME280;53009;52.490;4.976;2023-02-13T15:27:33;103600;;;11.3;100
66206;BME280;53009;52.490;4.976;2023-02-13T15:32:32;103600;;;11.3;100
66206;BME280;53009;52.490;4.976;2023-02-13T15:37:31;103600;;;11.1;100
66206;BME280;53009;52.490;4.976;2023-02-13T15:42:31;103600;;;11.1;100
66206;BME280;53009;52.490;4.976;2023-02-13T15:47:31;103600;;;11;100
66206;BME280;53009;52.490;4.976;2023-02-13T15:52:31;103600;;;11;100
66206;BME280;53009;52.490;4.976;2023-02-13T15:57:31;103600;;;10.8;100
66206;BME280;53009;52.490;4.976;2023-02-13T16:02:32;103600;;;10.7;100
66206;BME280;53009;52.490;4.976;2023-02-13T16:07:42;103600;;;10.6;100
66206;BME280;53009;52.490;4.976;2023-02-13T16:12:31;103600;;;10.5;100
66206;BME280;53009;52.490;4.976;2023-02-13T16:17:31;103600;;;10.3;100
66206;BME280;53009;52.490;4.976;2023-02-13T16:22:32;103600;;;10.2;100
66206;BME280;53009;52.490;4.976;2023-02-13T16:27:31;103600;;;10.1;100
66206;BME280;53009;52.490;4.976;2023-02-13T16:32:32;103600;;;9.9;100
66206;BME280;53009;52.490;4.976;2023-02-13T16:37:31;103600;;;9.8;100
66206;BME280;53009;52.490;4.976;2023-02-13T16:42:31;103600;;;9.7;100
66206;BME280;53009;52.490;4.976;2023-02-13T16:47:31;103600;;;9.5;100
66206;BME280;53009;52.490;4.976;2023-02-13T16:52:31;103600;;;9.4;100
66206;BME280;53009;52.490;4.976;2023-02-13T16:57:31;103600;;;9.2;100
66206;BME280;53009;52.490;4.976;2023-02-13T17:02:31;103600;;;9.1;100
66206;BME280;53009;52.490;4.976;2023-02-13T17:07:32;103600;;;9;100
66206;BME280;53009;52.490;4.976;2023-02-13T17:12:33;103600;;;8.9;100
66206;BME280;53009;52.490;4.976;2023-02-13T17:17:31;103600;;;8.8;100
66206;BME280;53009;52.490;4.976;2023-02-13T17:22:32;103600;;;8.7;100
66206;BME280;53009;52.490;4.976;2023-02-13T17:27:31;103600;;;8.6;100
66206;BME280;53009;52.490;4.976;2023-02-13T17:32:31;103600;;;8.5;0
66206;BME280;53009;52.490;4.976;2023-02-13T17:37:31;103600;;;8.4;0
66206;BME280;53009;52.490;4.976;2023-02-13T17:42:31;103600;;;8.3;0
66206;BME280;53009;52.490;4.976;2023-02-13T17:47:31;103600;;;8.2;0
66206;BME280;53009;52.490;4.976;2023-02-13T17:52:31;103600;;;8.2;0
66206;BME280;53009;52.490;4.976;2023-02-13T17:57:31;103600;;;8;0
66206;BME280;53009;52.490;4.976;2023-02-13T18:02:31;103600;;;7.9;0
66206;BME280;53009;52.490;4.976;2023-02-13T18:07:31;103600;;;7.9;0
66206;BME280;53009;52.490;4.976;2023-02-13T18:12:31;103600;;;7.8;0
66206;BME280;53009;52.490;4.976;2023-02-13T18:17:31;103600;;;7.7;0
66206;BME280;53009;52.490;4.976;2023-02-13T18:22:31;103600;;;7.6;0
66206;BME280;53009;52.490;4.976;2023-02-13T18:27:31;103600;;;7.5;0
66206;BME280;53009;52.490;4.976;2023-02-13T18:32:31;103600;;;7.4;0
66206;BME280;53009;52.490;4.976;2023-02-13T18:37:31;103600;;;7.3;0
66206;BME280;53009;52.490;4.976;2023-02-13T18:42:31;103600;;;7.3;0
66206;BME280;53009;52.490;4.976;2023-02-13T18:47:31;103600;;;7.2;0
66206;BME280;53009;52.490;4.976;2023-02-13T18:52:32;103600;;;7.1;0
66206;BME280;53009;52.490;4.976;2023-02-13T18:57:31;103600;;;7.1;0
66206;BME280;53009;52.490;4.976;2023-02-13T19:02:31;103600;;;7;0
66206;BME280;53009;52.490;4.976;2023-02-13T19:07:31;103600;;;7;0
66206;BME280;53009;52.490;4.976;2023-02-13T19:12:31;103600;;;6.9;0
66206;BME280;53009;52.490;4.976;2023-02-13T19:17:32;103600;;;6.8;0
66206;BME280;53009;52.490;4.976;2023-02-13T19:22:31;103600;;;6.8;0
66206;BME280;53009;52.490;4.976;2023-02-13T19:27:31;103600;;;6.7;0
66206;BME280;53009;52.490;4.976;2023-02-13T19:32:31;103600;;;6.7;0
66206;BME280;53009;52.490;4.976;2023-02-13T19:37:31;103600;;;6.5;0
66206;BME280;53009;52.490;4.976;2023-02-13T19:42:31;103600;;;6.5;0
66206;BME280;53009;52.490;4.976;2023-02-13T19:47:32;103600;;;6.4;0
66206;BME280;53009;52.490;4.976;2023-02-13T19:52:31;103600;;;6.3;0
66206;BME280;53009;52.490;4.976;2023-02-13T19:57:31;103700;;;6.3;0
66206;BME280;53009;52.490;4.976;2023-02-13T20:02:31;103600;;;6.3;0
66206;BME280;53009;52.490;4.976;2023-02-13T20:07:31;103700;;;6.2;0
66206;BME280;53009;52.490;4.976;2023-02-13T20:12:31;103700;;;6.1;0
66206;BME280;53009;52.490;4.976;2023-02-13T20:17:33;103700;;;6.1;0
66206;BME280;53009;52.490;4.976;2023-02-13T20:22:31;103700;;;6;0
66206;BME280;53009;52.490;4.976;2023-02-13T20:27:33;103700;;;5.9;0
66206;BME280;53009;52.490;4.976;2023-02-13T20:32:31;103700;;;5.8;0
66206;BME280;53009;52.490;4.976;2023-02-13T20:37:31;103700;;;5.8;0
66206;BME280;53009;52.490;4.976;2023-02-13T20:42:31;103700;;;5.8;0
66206;BME280;53009;52.490;4.976;2023-02-13T20:47:31;103700;;;5.7;0
66206;BME280;53009;52.490;4.976;2023-02-13T20:52:31;103700;;;5.7;0
66206;BME280;53009;52.490;4.976;2023-02-13T20:57:31;103600;;;5.7;0
66206;BME280;53009;52.490;4.976;2023-02-13T21:02:32;103600;;;5.6;0
66206;BME280;53009;52.490;4.976;2023-02-13T21:07:31;103600;;;5.5;0
66206;BME280;53009;52.490;4.976;2023-02-13T21:12:31;103700;;;5.5;0
66206;BME280;53009;52.490;4.976;2023-02-13T21:17:31;103700;;;5.4;0
66206;BME280;53009;52.490;4.976;2023-02-13T21:22:31;103700;;;5.4;0
66206;BME280;53009;52.490;4.976;2023-02-13T21:27:32;103700;;;5.3;0
66206;BME280;53009;52.490;4.976;2023-02-13T21:32:31;103700;;;5.3;0
66206;BME280;53009;52.490;4.976;2023-02-13T21:37:31;103700;;;5.3;0
66206;BME280;53009;52.490;4.976;2023-02-13T21:42:31;103700;;;5.3;0
66206;BME280;53009;52.490;4.976;2023-02-13T21:47:31;103700;;;5.3;0
66206;BME280;53009;52.490;4.976;2023-02-13T21:52:31;103700;;;5.3;0
66206;BME280;53009;52.490;4.976;2023-02-13T21:57:33;103600;;;5.3;0
66206;BME280;53009;52.490;4.976;2023-02-13T22:02:32;103600;;;5.3;0
66206;BME280;53009;52.490;4.976;2023-02-13T22:07:32;103600;;;5.3;0
66206;BME280;53009;52.490;4.976;2023-02-13T22:12:31;103600;;;5.2;0
66206;BME280;53009;52.490;4.976;2023-02-13T22:17:31;103600;;;5.2;0
66206;BME280;53009;52.490;4.976;2023-02-13T22:22:31;103600;;;5.2;0
66206;BME280;53009;52.490;4.976;2023-02-13T22:27:32;103600;;;5.1;0
66206;BME280;53009;52.490;4.976;2023-02-13T22:32:31;103600;;;5.1;0
66206;BME280;53009;52.490;4.976;2023-02-13T22:37:31;103600;;;5;0
66206;BME280;53009;52.490;4.976;2023-02-13T22:42:31;103600;;;5;0
66206;BME280;53009;52.490;4.976;2023-02-13T22:47:31;103600;;;4.9;0
66206;BME280;53009;52.490;4.976;2023-02-13T22:52:31;103600;;;4.9;0
66206;BME280;53009;52.490;4.976;2023-02-13T22:57:31;103600;;;4.8;0
66206;BME280;53009;52.490;4.976;2023-02-13T23:02:31;103600;;;4.8;0
66206;BME280;53009;52.490;4.976;2023-02-13T23:07:31;103600;;;4.7;0
66206;BME280;53009;52.490;4.976;2023-02-13T23:10:11;103600;;;4.6;0
66206;BME280;53009;52.490;4.976;2023-02-13T23:11:18;103600;;;4.6;0
66206;BME280;53009;52.490;4.976;2023-02-13T23:15:36;103600;;;4.5;0
66206;BME280;53009;52.490;4.976;2023-02-13T23:18:42;103600;;;4.5;0
66206;BME280;53009;52.490;4.976;2023-02-13T23:23:16;103600;;;4.5;0
66206;BME280;53009;52.490;4.976;2023-02-13T23:24:06;103600;;;4.4;0
66206;BME280;53009;52.490;4.976;2023-02-13T23:28:24;103600;;;4.4;0
66206;BME280;53009;52.490;4.976;2023-02-13T23:31:30;103600;;;4.4;0
66206;BME280;53009;52.490;4.976;2023-02-13T23:36:30;103600;;;4.4;0
66206;BME280;53009;52.490;4.976;2023-02-13T23:37:00;103600;;;4.3;0
66206;BME280;53009;52.490;4.976;2023-02-13T23:37:58;103600;;;4.3;0
66206;BME280;53009;52.490;4.976;2023-02-13T23:40:00;103600;;;4.3;0
66206;BME280;53009;52.490;4.976;2023-02-13T23:42:02;103600;;;4.3;0